sensor_id;sensor_type;location;lat;lon;timestamp;temperature;humidity
23544;DHT22;11950;51.230;4.012;2022-09-09T00:01:49;16.80;99.90
23544;DHT22;11950;51.230;4.012;2022-09-09T00:04:29;16.90;99.90
23544;DHT22;11950;51.230;4.012;2022-09-09T00:09:48;16.90;99.90
23544;DHT22;11950;51.230;4.012;2022-09-09T00:12:43;16.70;99.90
23544;DHT22;11950;51.230;4.012;2022-09-09T00:18:16;16.90;99.90
23544;DHT22;11950;51.230;4.012;2022-09-09T00:20:49;16.80;99.90
23544;DHT22;11950;51.230;4.012;2022-09-09T00:23:27;16.90;99.90
23544;DHT22;11950;51.230;4.012;2022-09-09T00:31:38;16.90;99.90
23544;DHT22;11950;51.230;4.012;2022-09-09T00:36:42;16.90;99.90
23544;DHT22;11950;51.230;4.012;2022-09-09T00:39:27;17.00;99.90
23544;DHT22;11950;51.230;4.012;2022-09-09T00:42:24;16.80;99.90
23544;DHT22;11950;51.230;4.012;2022-09-09T00:47:43;16.90;99.90
23544;DHT22;11950;51.230;4.012;2022-09-09T00:55:59;17.00;99.90
23544;DHT22;11950;51.230;4.012;2022-09-09T00:58:27;16.90;99.90
23544;DHT22;11950;51.230;4.012;2022-09-09T01:01:10;16.80;99.90
23544;DHT22;11950;51.230;4.012;2022-09-09T01:03:52;16.80;99.90
23544;DHT22;11950;51.230;4.012;2022-09-09T01:06:32;16.90;99.90
23544;DHT22;11950;51.230;4.012;2022-09-09T01:09:18;16.80;99.90
23544;DHT22;11950;51.230;4.012;2022-09-09T01:14:50;16.70;99.90
23544;DHT22;11950;51.230;4.012;2022-09-09T01:17:26;16.80;99.90
23544;DHT22;11950;51.230;4.012;2022-09-09T01:20:26;16.80;99.90
23544;DHT22;11950;51.230;4.012;2022-09-09T01:23:25;16.90;99.90
23544;DHT22;11950;51.230;4.012;2022-09-09T01:26:25;16.70;99.90
23544;DHT22;11950;51.230;4.012;2022-09-09T01:28:53;16.70;99.90
23544;DHT22;11950;51.230;4.012;2022-09-09T01:31:35;16.50;99.90
23544;DHT22;11950;51.230;4.012;2022-09-09T01:34:04;16.90;99.90
23544;DHT22;11950;51.230;4.012;2022-09-09T01:36:59;16.80;99.90
23544;DHT22;11950;51.230;4.012;2022-09-09T01:39:27;16.70;99.90
23544;DHT22;11950;51.230;4.012;2022-09-09T01:42:01;16.70;99.90
23544;DHT22;11950;51.230;4.012;2022-09-09T01:44:28;16.70;99.90
23544;DHT22;11950;51.230;4.012;2022-09-09T01:46:55;16.70;99.90
23544;DHT22;11950;51.230;4.012;2022-09-09T01:49:23;16.60;99.90
23544;DHT22;11950;51.230;4.012;2022-09-09T01:51:53;16.60;99.90
23544;DHT22;11950;51.230;4.012;2022-09-09T01:54:29;16.70;99.90
23544;DHT22;11950;51.230;4.012;2022-09-09T02:00:09;16.80;99.90
23544;DHT22;11950;51.230;4.012;2022-09-09T02:03:05;16.60;99.90
23544;DHT22;11950;51.230;4.012;2022-09-09T02:16:42;16.60;99.90
23544;DHT22;11950;51.230;4.012;2022-09-09T02:37:18;16.40;99.90
23544;DHT22;11950;51.230;4.012;2022-09-09T02:39:48;16.00;99.90
23544;DHT22;11950;51.230;4.012;2022-09-09T02:58:09;16.30;99.90
23544;DHT22;11950;51.230;4.012;2022-09-09T03:00:38;16.30;99.90
23544;DHT22;11950;51.230;4.012;2022-09-09T03:03:07;16.30;99.90
23544;DHT22;11950;51.230;4.012;2022-09-09T03:05:35;16.30;99.90
23544;DHT22;11950;51.230;4.012;2022-09-09T03:08:03;16.30;99.90
23544;DHT22;11950;51.230;4.012;2022-09-09T03:10:29;16.40;99.90
23544;DHT22;11950;51.230;4.012;2022-09-09T03:12:58;16.40;99.90
23544;DHT22;11950;51.230;4.012;2022-09-09T03:17:58;16.60;99.90
23544;DHT22;11950;51.230;4.012;2022-09-09T03:20:27;16.40;99.90
23544;DHT22;11950;51.230;4.012;2022-09-09T03:22:54;16.40;99.90
23544;DHT22;11950;51.230;4.012;2022-09-09T03:25:20;16.40;99.90
23544;DHT22;11950;51.230;4.012;2022-09-09T03:27:49;16.40;99.90
23544;DHT22;11950;51.230;4.012;2022-09-09T03:30:16;16.40;99.90
23544;DHT22;11950;51.230;4.012;2022-09-09T03:32:42;16.40;99.90
23544;DHT22;11950;51.230;4.012;2022-09-09T03:35:08;16.50;99.90
23544;DHT22;11950;51.230;4.012;2022-09-09T03:37:35;16.40;99.90
23544;DHT22;11950;51.230;4.012;2022-09-09T03:40:01;16.30;99.90
23544;DHT22;11950;51.230;4.012;2022-09-09T03:42:28;16.40;99.90
23544;DHT22;11950;51.230;4.012;2022-09-09T03:44:56;16.40;99.90
23544;DHT22;11950;51.230;4.012;2022-09-09T03:47:26;16.30;99.90
23544;DHT22;11950;51.230;4.012;2022-09-09T03:49:57;16.30;99.90
23544;DHT22;11950;51.230;4.012;2022-09-09T03:52:23;16.50;99.90
23544;DHT22;11950;51.230;4.012;2022-09-09T03:54:53;16.30;99.90
23544;DHT22;11950;51.230;4.012;2022-09-09T03:57:20;16.30;99.90
23544;DHT22;11950;51.230;4.012;2022-09-09T03:59:47;16.30;99.90
23544;DHT22;11950;51.230;4.012;2022-09-09T04:02:13;16.40;99.90
23544;DHT22;11950;51.230;4.012;2022-09-09T04:04:39;16.40;99.90
23544;DHT22;11950;51.230;4.012;2022-09-09T04:07:05;16.30;99.90
23544;DHT22;11950;51.230;4.012;2022-09-09T04:09:33;16.50;99.90
23544;DHT22;11950;51.230;4.012;2022-09-09T04:12:00;16.40;99.90
23544;DHT22;11950;51.230;4.012;2022-09-09T04:14:27;16.30;99.90
23544;DHT22;11950;51.230;4.012;2022-09-09T04:19:23;16.20;99.90
23544;DHT22;11950;51.230;4.012;2022-09-09T04:24:18;16.40;99.90
23544;DHT22;11950;51.230;4.012;2022-09-09T04:26:45;16.30;99.90
23544;DHT22;11950;51.230;4.012;2022-09-09T04:29:12;16.30;99.90
23544;DHT22;11950;51.230;4.012;2022-09-09T04:31:39;16.50;99.90
23544;DHT22;11950;51.230;4.012;2022-09-09T04:34:09;16.40;99.90
23544;DHT22;11950;51.230;4.012;2022-09-09T04:36:35;16.40;99.90
23544;DHT22;11950;51.230;4.012;2022-09-09T04:41:31;16.00;99.90
23544;DHT22;11950;51.230;4.012;2022-09-09T04:43:58;16.40;99.90
23544;DHT22;11950;51.230;4.012;2022-09-09T04:46:25;16.50;99.90
23544;DHT22;11950;51.230;4.012;2022-09-09T04:48:52;16.40;99.90
23544;DHT22;11950;51.230;4.012;2022-09-09T04:51:19;16.30;99.90
23544;DHT22;11950;51.230;4.012;2022-09-09T04:53:47;16.30;99.90
23544;DHT22;11950;51.230;4.012;2022-09-09T04:56:17;16.40;99.90
23544;DHT22;11950;51.230;4.012;2022-09-09T04:58:52;16.30;99.90
23544;DHT22;11950;51.230;4.012;2022-09-09T05:01:22;16.50;99.90
23544;DHT22;11950;51.230;4.012;2022-09-09T05:03:51;16.30;99.90
23544;DHT22;11950;51.230;4.012;2022-09-09T05:06:22;16.30;99.90
23544;DHT22;11950;51.230;4.012;2022-09-09T05:08:52;16.40;99.90
23544;DHT22;11950;51.230;4.012;2022-09-09T05:11:25;16.40;99.90
23544;DHT22;11950;51.230;4.012;2022-09-09T05:13:55;16.50;99.90
23544;DHT22;11950;51.230;4.012;2022-09-09T05:16:23;16.60;99.90
23544;DHT22;11950;51.230;4.012;2022-09-09T05:18:50;16.50;99.90
23544;DHT22;11950;51.230;4.012;2022-09-09T05:21:22;16.60;99.90
23544;DHT22;11950;51.230;4.012;2022-09-09T05:23:49;16.50;99.90
23544;DHT22;11950;51.230;4.012;2022-09-09T05:26:20;16.70;99.90
23544;DHT22;11950;51.230;4.012;2022-09-09T05:31:17;16.50;99.90
23544;DHT22;11950;51.230;4.012;2022-09-09T05:33:46;16.50;99.90
23544;DHT22;11950;51.230;4.012;2022-09-09T05:36:19;16.00;99.90
23544;DHT22;11950;51.230;4.012;2022-09-09T05:53:42;16.70;99.90
23544;DHT22;11950;51.230;4.012;2022-09-09T05:56:11;16.80;99.90
23544;DHT22;11950;51.230;4.012;2022-09-09T05:58:38;16.90;99.90
23544;DHT22;11950;51.230;4.012;2022-09-09T06:01:08;16.90;99.90
23544;DHT22;11950;51.230;4.012;2022-09-09T06:03:39;16.80;99.90
23544;DHT22;11950;51.230;4.012;2022-09-09T06:06:07;17.00;99.90
23544;DHT22;11950;51.230;4.012;2022-09-09T06:08:35;17.00;99.90
23544;DHT22;11950;51.230;4.012;2022-09-09T06:11:09;16.80;99.90
23544;DHT22;11950;51.230;4.012;2022-09-09T06:13:36;16.90;99.90
23544;DHT22;11950;51.230;4.012;2022-09-09T06:16:09;16.90;99.90
23544;DHT22;11950;51.230;4.012;2022-09-09T06:18:39;16.90;99.90
23544;DHT22;11950;51.230;4.012;2022-09-09T06:21:09;16.90;99.90
23544;DHT22;11950;51.230;4.012;2022-09-09T06:23:39;17.10;99.90
23544;DHT22;11950;51.230;4.012;2022-09-09T06:26:16;17.20;99.90
23544;DHT22;11950;51.230;4.012;2022-09-09T06:28:45;17.10;99.90
23544;DHT22;11950;51.230;4.012;2022-09-09T06:31:14;17.20;99.90
23544;DHT22;11950;51.230;4.012;2022-09-09T06:33:41;17.30;99.90
23544;DHT22;11950;51.230;4.012;2022-09-09T06:36:14;17.20;99.90
23544;DHT22;11950;51.230;4.012;2022-09-09T06:38:42;17.30;99.90
23544;DHT22;11950;51.230;4.012;2022-09-09T06:41:11;17.50;99.90
23544;DHT22;11950;51.230;4.012;2022-09-09T06:43:39;17.30;99.90
23544;DHT22;11950;51.230;4.012;2022-09-09T06:46:11;17.40;99.90
23544;DHT22;11950;51.230;4.012;2022-09-09T06:48:42;17.20;99.90
23544;DHT22;11950;51.230;4.012;2022-09-09T06:51:16;17.30;99.90
23544;DHT22;11950;51.230;4.012;2022-09-09T06:53:46;17.50;99.90
23544;DHT22;11950;51.230;4.012;2022-09-09T06:56:26;15.00;99.90
23544;DHT22;11950;51.230;4.012;2022-09-09T06:58:59;17.40;99.90
23544;DHT22;11950;51.230;4.012;2022-09-09T07:01:34;17.60;99.90
23544;DHT22;11950;51.230;4.012;2022-09-09T07:04:05;17.60;99.90
23544;DHT22;11950;51.230;4.012;2022-09-09T07:06:37;17.60;99.90
23544;DHT22;11950;51.230;4.012;2022-09-09T07:09:08;17.60;99.90
23544;DHT22;11950;51.230;4.012;2022-09-09T07:11:48;17.60;99.90
23544;DHT22;11950;51.230;4.012;2022-09-09T07:14:16;17.60;99.90
23544;DHT22;11950;51.230;4.012;2022-09-09T07:16:46;17.50;99.90
23544;DHT22;11950;51.230;4.012;2022-09-09T07:19:15;17.50;99.90
23544;DHT22;11950;51.230;4.012;2022-09-09T07:21:43;17.50;99.90
23544;DHT22;11950;51.230;4.012;2022-09-09T07:24:13;17.50;99.90
23544;DHT22;11950;51.230;4.012;2022-09-09T07:29:08;17.80;99.90
23544;DHT22;11950;51.230;4.012;2022-09-09T07:31:37;17.80;99.90
23544;DHT22;11950;51.230;4.012;2022-09-09T07:34:07;17.80;99.90
23544;DHT22;11950;51.230;4.012;2022-09-09T07:36:36;17.90;99.90
23544;DHT22;11950;51.230;4.012;2022-09-09T07:39:10;18.00;99.90
23544;DHT22;11950;51.230;4.012;2022-09-09T07:41:43;18.00;99.90
23544;DHT22;11950;51.230;4.012;2022-09-09T07:44:12;18.10;99.90
23544;DHT22;11950;51.230;4.012;2022-09-09T07:46:41;18.10;99.90
23544;DHT22;11950;51.230;4.012;2022-09-09T07:49:11;18.20;99.90
23544;DHT22;11950;51.230;4.012;2022-09-09T07:51:40;18.20;99.90
23544;DHT22;11950;51.230;4.012;2022-09-09T07:54:10;18.30;99.90
23544;DHT22;11950;51.230;4.012;2022-09-09T07:56:40;18.30;99.90
23544;DHT22;11950;51.230;4.012;2022-09-09T07:59:08;17.80;99.90
23544;DHT22;11950;51.230;4.012;2022-09-09T08:01:42;18.20;99.90
23544;DHT22;11950;51.230;4.012;2022-09-09T08:11:38;18.50;99.90
23544;DHT22;11950;51.230;4.012;2022-09-09T08:14:06;18.40;99.90
23544;DHT22;11950;51.230;4.012;2022-09-09T08:16:45;18.40;99.90
23544;DHT22;11950;51.230;4.012;2022-09-09T08:19:14;17.90;99.90
23544;DHT22;11950;51.230;4.012;2022-09-09T08:21:45;18.40;99.90
23544;DHT22;11950;51.230;4.012;2022-09-09T08:24:12;18.20;99.90
23544;DHT22;11950;51.230;4.012;2022-09-09T08:29:12;19.00;99.90
23544;DHT22;11950;51.230;4.012;2022-09-09T08:31:44;18.30;99.90
23544;DHT22;11950;51.230;4.012;2022-09-09T08:34:11;18.30;99.90
23544;DHT22;11950;51.230;4.012;2022-09-09T08:36:40;18.90;99.90
23544;DHT22;11950;51.230;4.012;2022-09-09T08:39:10;18.30;99.90
23544;DHT22;11950;51.230;4.012;2022-09-09T08:42:12;18.10;99.90
23544;DHT22;11950;51.230;4.012;2022-09-09T08:55:59;18.30;99.90
23544;DHT22;11950;51.230;4.012;2022-09-09T08:58:47;18.10;99.90
23544;DHT22;11950;51.230;4.012;2022-09-09T09:02:04;18.20;99.90
23544;DHT22;11950;51.230;4.012;2022-09-09T09:04:18;18.00;99.90
23544;DHT22;11950;51.230;4.012;2022-09-09T09:10:10;18.20;99.90
23544;DHT22;11950;51.230;4.012;2022-09-09T09:12:40;17.90;99.90
23544;DHT22;11950;51.230;4.012;2022-09-09T09:15:18;18.10;99.90
23544;DHT22;11950;51.230;4.012;2022-09-09T09:17:46;17.80;99.90
23544;DHT22;11950;51.230;4.012;2022-09-09T09:20:16;18.20;99.90
23544;DHT22;11950;51.230;4.012;2022-09-09T09:22:52;18.20;99.90
23544;DHT22;11950;51.230;4.012;2022-09-09T09:25:29;18.30;99.90
23544;DHT22;11950;51.230;4.012;2022-09-09T09:28:15;18.20;99.90
23544;DHT22;11950;51.230;4.012;2022-09-09T09:38:21;18.20;99.90
23544;DHT22;11950;51.230;4.012;2022-09-09T09:40:57;18.40;99.90
23544;DHT22;11950;51.230;4.012;2022-09-09T09:48:26;18.30;99.90
23544;DHT22;11950;51.230;4.012;2022-09-09T09:51:22;18.30;99.90
23544;DHT22;11950;51.230;4.012;2022-09-09T09:53:47;18.30;99.90
23544;DHT22;11950;51.230;4.012;2022-09-09T09:56:16;18.40;99.90
23544;DHT22;11950;51.230;4.012;2022-09-09T09:58:52;18.50;99.90
23544;DHT22;11950;51.230;4.012;2022-09-09T10:01:28;18.70;99.90
23544;DHT22;11950;51.230;4.012;2022-09-09T10:04:20;18.50;99.90
23544;DHT22;11950;51.230;4.012;2022-09-09T10:06:49;18.90;99.90
23544;DHT22;11950;51.230;4.012;2022-09-09T10:09:29;18.80;99.90
23544;DHT22;11950;51.230;4.012;2022-09-09T10:36:57;19.00;99.90
23544;DHT22;11950;51.230;4.012;2022-09-09T10:42:12;19.10;99.90
23544;DHT22;11950;51.230;4.012;2022-09-09T10:55:18;19.40;99.90
23544;DHT22;11950;51.230;4.012;2022-09-09T11:00:25;19.50;99.90
23544;DHT22;11950;51.230;4.012;2022-09-09T11:03:03;19.50;99.90
23544;DHT22;11950;51.230;4.012;2022-09-09T11:05:45;19.50;99.90
23544;DHT22;11950;51.230;4.012;2022-09-09T11:08:21;19.60;99.90
23544;DHT22;11950;51.230;4.012;2022-09-09T11:18:39;19.90;99.90
23544;DHT22;11950;51.230;4.012;2022-09-09T11:21:19;20.00;99.90
23544;DHT22;11950;51.230;4.012;2022-09-09T11:23:53;20.20;99.90
23544;DHT22;11950;51.230;4.012;2022-09-09T11:26:47;20.10;99.90
23544;DHT22;11950;51.230;4.012;2022-09-09T11:34:42;20.10;99.90
23544;DHT22;11950;51.230;4.012;2022-09-09T11:40:24;20.10;99.90
23544;DHT22;11950;51.230;4.012;2022-09-09T11:43:13;19.80;99.90
23544;DHT22;11950;51.230;4.012;2022-09-09T11:45:42;20.30;99.90
23544;DHT22;11950;51.230;4.012;2022-09-09T11:53:55;20.20;99.90
23544;DHT22;11950;51.230;4.012;2022-09-09T11:56:59;20.30;99.90
23544;DHT22;11950;51.230;4.012;2022-09-09T12:04:42;20.30;99.90
23544;DHT22;11950;51.230;4.012;2022-09-09T12:10:02;20.30;99.90
23544;DHT22;11950;51.230;4.012;2022-09-09T12:12:30;20.30;99.90
23544;DHT22;11950;51.230;4.012;2022-09-09T12:17:47;20.40;99.90
23544;DHT22;11950;51.230;4.012;2022-09-09T12:20:35;20.40;99.90
23544;DHT22;11950;51.230;4.012;2022-09-09T12:23:30;20.40;99.90
23544;DHT22;11950;51.230;4.012;2022-09-09T12:29:06;20.40;99.90
23544;DHT22;11950;51.230;4.012;2022-09-09T12:37:04;20.50;99.90
23544;DHT22;11950;51.230;4.012;2022-09-09T12:39:43;20.30;99.90
23544;DHT22;11950;51.230;4.012;2022-09-09T12:42:19;20.30;99.90
23544;DHT22;11950;51.230;4.012;2022-09-09T12:45:00;20.40;99.90
23544;DHT22;11950;51.230;4.012;2022-09-09T12:47:40;20.30;99.90
23544;DHT22;11950;51.230;4.012;2022-09-09T12:50:16;20.20;99.90
23544;DHT22;11950;51.230;4.012;2022-09-09T12:52:43;20.10;99.90
23544;DHT22;11950;51.230;4.012;2022-09-09T12:55:20;20.10;99.90
23544;DHT22;11950;51.230;4.012;2022-09-09T12:57:48;20.20;99.90
23544;DHT22;11950;51.230;4.012;2022-09-09T13:00:21;20.20;99.90
23544;DHT22;11950;51.230;4.012;2022-09-09T13:05:37;20.40;99.90
23544;DHT22;11950;51.230;4.012;2022-09-09T13:08:06;20.30;99.90
23544;DHT22;11950;51.230;4.012;2022-09-09T13:10:50;20.40;99.90
23544;DHT22;11950;51.230;4.012;2022-09-09T13:16:03;20.20;99.90
23544;DHT22;11950;51.230;4.012;2022-09-09T13:18:34;20.20;99.90
23544;DHT22;11950;51.230;4.012;2022-09-09T13:21:01;20.80;99.90
23544;DHT22;11950;51.230;4.012;2022-09-09T13:23:33;19.70;99.90
23544;DHT22;11950;51.230;4.012;2022-09-09T13:26:06;20.60;99.90
23544;DHT22;11950;51.230;4.012;2022-09-09T13:28:44;19.40;99.90
23544;DHT22;11950;51.230;4.012;2022-09-09T13:31:38;19.30;99.90
23544;DHT22;11950;51.230;4.012;2022-09-09T13:34:34;19.80;99.90
23544;DHT22;11950;51.230;4.012;2022-09-09T13:37:06;20.10;99.90
23544;DHT22;11950;51.230;4.012;2022-09-09T13:39:51;19.80;99.90
23544;DHT22;11950;51.230;4.012;2022-09-09T13:42:29;20.00;99.90
23544;DHT22;11950;51.230;4.012;2022-09-09T13:47:34;20.10;99.90
23544;DHT22;11950;51.230;4.012;2022-09-09T13:50:22;20.20;99.90
23544;DHT22;11950;51.230;4.012;2022-09-09T13:52:53;20.10;99.90
23544;DHT22;11950;51.230;4.012;2022-09-09T13:55:21;19.50;99.90
23544;DHT22;11950;51.230;4.012;2022-09-09T13:57:56;20.10;99.90
23544;DHT22;11950;51.230;4.012;2022-09-09T14:00:24;20.20;99.90
23544;DHT22;11950;51.230;4.012;2022-09-09T14:02:50;20.10;99.90
23544;DHT22;11950;51.230;4.012;2022-09-09T14:05:18;20.00;99.90
23544;DHT22;11950;51.230;4.012;2022-09-09T14:07:44;20.00;99.90
23544;DHT22;11950;51.230;4.012;2022-09-09T14:10:11;20.00;99.90
23544;DHT22;11950;51.230;4.012;2022-09-09T14:12:38;19.90;99.90
23544;DHT22;11950;51.230;4.012;2022-09-09T14:15:06;20.20;99.90
23544;DHT22;11950;51.230;4.012;2022-09-09T14:17:33;19.90;99.90
23544;DHT22;11950;51.230;4.012;2022-09-09T14:29:47;19.20;99.90
23544;DHT22;11950;51.230;4.012;2022-09-09T14:32:13;19.50;99.90
23544;DHT22;11950;51.230;4.012;2022-09-09T14:34:39;19.40;99.90
23544;DHT22;11950;51.230;4.012;2022-09-09T14:39:33;19.30;99.90
23544;DHT22;11950;51.230;4.012;2022-09-09T14:41:59;19.50;99.90
23544;DHT22;11950;51.230;4.012;2022-09-09T14:46:52;19.70;99.90
23544;DHT22;11950;51.230;4.012;2022-09-09T14:51:45;19.60;99.90
23544;DHT22;11950;51.230;4.012;2022-09-09T14:56:38;20.30;99.90
23544;DHT22;11950;51.230;4.012;2022-09-09T14:59:05;19.70;99.90
23544;DHT22;11950;51.230;4.012;2022-09-09T15:01:31;19.80;99.90
23544;DHT22;11950;51.230;4.012;2022-09-09T15:04:02;19.70;99.90
23544;DHT22;11950;51.230;4.012;2022-09-09T15:08:59;19.70;99.90
23544;DHT22;11950;51.230;4.012;2022-09-09T15:11:28;19.80;99.90
23544;DHT22;11950;51.230;4.012;2022-09-09T15:13:56;19.80;99.90
23544;DHT22;11950;51.230;4.012;2022-09-09T15:16:26;19.50;99.90
23544;DHT22;11950;51.230;4.012;2022-09-09T15:18:55;20.30;99.90
23544;DHT22;11950;51.230;4.012;2022-09-09T15:21:24;19.10;99.90
23544;DHT22;11950;51.230;4.012;2022-09-09T15:23:50;19.10;99.90
23544;DHT22;11950;51.230;4.012;2022-09-09T15:26:18;19.70;99.90
23544;DHT22;11950;51.230;4.012;2022-09-09T15:28:46;19.90;99.90
23544;DHT22;11950;51.230;4.012;2022-09-09T15:31:27;20.50;99.90
23544;DHT22;11950;51.230;4.012;2022-09-09T15:33:59;19.80;99.90
23544;DHT22;11950;51.230;4.012;2022-09-09T15:38:59;20.00;99.90
23544;DHT22;11950;51.230;4.012;2022-09-09T15:41:26;20.10;99.90
23544;DHT22;11950;51.230;4.012;2022-09-09T15:43:54;19.90;99.90
23544;DHT22;11950;51.230;4.012;2022-09-09T15:49:16;19.90;99.90
23544;DHT22;11950;51.230;4.012;2022-09-09T15:51:46;20.70;99.90
23544;DHT22;11950;51.230;4.012;2022-09-09T15:54:15;19.30;99.90
23544;DHT22;11950;51.230;4.012;2022-09-09T15:56:44;19.40;99.90
23544;DHT22;11950;51.230;4.012;2022-09-09T15:59:11;19.60;99.90
23544;DHT22;11950;51.230;4.012;2022-09-09T16:01:38;19.90;99.90
23544;DHT22;11950;51.230;4.012;2022-09-09T16:04:05;19.70;99.90
23544;DHT22;11950;51.230;4.012;2022-09-09T16:06:32;19.80;99.90
23544;DHT22;11950;51.230;4.012;2022-09-09T16:09:01;19.70;99.90
23544;DHT22;11950;51.230;4.012;2022-09-09T16:11:34;20.50;99.90
23544;DHT22;11950;51.230;4.012;2022-09-09T16:14:01;19.80;99.90
23544;DHT22;11950;51.230;4.012;2022-09-09T16:16:29;19.50;99.90
23544;DHT22;11950;51.230;4.012;2022-09-09T16:19:00;19.50;99.90
23544;DHT22;11950;51.230;4.012;2022-09-09T16:21:30;19.40;99.90
23544;DHT22;11950;51.230;4.012;2022-09-09T16:23:58;19.50;99.90
23544;DHT22;11950;51.230;4.012;2022-09-09T16:26:30;19.30;99.90
23544;DHT22;11950;51.230;4.012;2022-09-09T16:28:57;19.40;99.90
23544;DHT22;11950;51.230;4.012;2022-09-09T16:31:25;19.40;99.90
23544;DHT22;11950;51.230;4.012;2022-09-09T16:33:52;19.50;99.90
23544;DHT22;11950;51.230;4.012;2022-09-09T16:36:21;19.70;99.90
23544;DHT22;11950;51.230;4.012;2022-09-09T16:38:47;19.30;99.90
23544;DHT22;11950;51.230;4.012;2022-09-09T16:41:14;19.60;99.90
23544;DHT22;11950;51.230;4.012;2022-09-09T16:43:41;19.60;99.90
23544;DHT22;11950;51.230;4.012;2022-09-09T16:46:16;19.60;99.90
23544;DHT22;11950;51.230;4.012;2022-09-09T16:48:43;19.50;99.90
23544;DHT22;11950;51.230;4.012;2022-09-09T16:53:47;19.60;99.90
23544;DHT22;11950;51.230;4.012;2022-09-09T16:56:16;19.40;99.90
23544;DHT22;11950;51.230;4.012;2022-09-09T16:58:43;19.40;99.90
23544;DHT22;11950;51.230;4.012;2022-09-09T17:01:12;19.40;99.90
23544;DHT22;11950;51.230;4.012;2022-09-09T17:03:40;19.40;99.90
23544;DHT22;11950;51.230;4.012;2022-09-09T17:06:11;19.40;99.90
23544;DHT22;11950;51.230;4.012;2022-09-09T17:08:41;19.20;99.90
23544;DHT22;11950;51.230;4.012;2022-09-09T17:11:12;19.20;99.90
23544;DHT22;11950;51.230;4.012;2022-09-09T17:13:41;18.90;99.90
23544;DHT22;11950;51.230;4.012;2022-09-09T17:16:08;19.20;99.90
23544;DHT22;11950;51.230;4.012;2022-09-09T17:18:36;19.20;99.90
23544;DHT22;11950;51.230;4.012;2022-09-09T17:21:08;19.10;99.90
23544;DHT22;11950;51.230;4.012;2022-09-09T17:26:08;19.10;99.90
23544;DHT22;11950;51.230;4.012;2022-09-09T17:28:36;19.20;99.90
23544;DHT22;11950;51.230;4.012;2022-09-09T17:31:06;18.60;99.90
23544;DHT22;11950;51.230;4.012;2022-09-09T17:33:34;19.10;99.90
23544;DHT22;11950;51.230;4.012;2022-09-09T17:36:12;19.20;99.90
23544;DHT22;11950;51.230;4.012;2022-09-09T17:38:40;18.60;99.90
23544;DHT22;11950;51.230;4.012;2022-09-09T17:43:39;18.90;99.90
23544;DHT22;11950;51.230;4.012;2022-09-09T17:46:13;19.10;99.90
23544;DHT22;11950;51.230;4.012;2022-09-09T17:48:40;19.00;99.90
23544;DHT22;11950;51.230;4.012;2022-09-09T17:51:11;18.90;99.90
23544;DHT22;11950;51.230;4.012;2022-09-09T17:53:43;19.00;99.90
23544;DHT22;11950;51.230;4.012;2022-09-09T17:56:11;18.90;99.90
23544;DHT22;11950;51.230;4.012;2022-09-09T17:58:38;18.80;99.90
23544;DHT22;11950;51.230;4.012;2022-09-09T18:01:10;18.60;99.90
23544;DHT22;11950;51.230;4.012;2022-09-09T18:03:39;18.80;99.90
23544;DHT22;11950;51.230;4.012;2022-09-09T18:06:08;18.80;99.90
23544;DHT22;11950;51.230;4.012;2022-09-09T18:08:35;18.80;99.90
23544;DHT22;11950;51.230;4.012;2022-09-09T18:11:03;18.70;99.90
23544;DHT22;11950;51.230;4.012;2022-09-09T18:13:29;19.40;99.90
23544;DHT22;11950;51.230;4.012;2022-09-09T18:18:23;19.10;99.90
23544;DHT22;11950;51.230;4.012;2022-09-09T18:21:04;19.10;99.90
23544;DHT22;11950;51.230;4.012;2022-09-09T18:23:40;18.60;99.90
23544;DHT22;11950;51.230;4.012;2022-09-09T18:26:13;18.90;99.90
23544;DHT22;11950;51.230;4.012;2022-09-09T18:28:41;18.50;99.90
23544;DHT22;11950;51.230;4.012;2022-09-09T18:31:13;18.40;99.90
23544;DHT22;11950;51.230;4.012;2022-09-09T18:33:44;18.60;99.90
23544;DHT22;11950;51.230;4.012;2022-09-09T18:36:14;18.30;99.90
23544;DHT22;11950;51.230;4.012;2022-09-09T18:38:41;18.60;99.90
23544;DHT22;11950;51.230;4.012;2022-09-09T18:41:29;18.60;99.90
23544;DHT22;11950;51.230;4.012;2022-09-09T18:44:02;18.50;99.90
23544;DHT22;11950;51.230;4.012;2022-09-09T18:46:30;19.10;99.90
23544;DHT22;11950;51.230;4.012;2022-09-09T18:48:57;18.80;99.90
23544;DHT22;11950;51.230;4.012;2022-09-09T18:51:26;18.50;99.90
23544;DHT22;11950;51.230;4.012;2022-09-09T18:54:00;19.10;99.90
23544;DHT22;11950;51.230;4.012;2022-09-09T18:56:27;18.70;99.90
23544;DHT22;11950;51.230;4.012;2022-09-09T18:58:59;18.50;99.90
23544;DHT22;11950;51.230;4.012;2022-09-09T19:01:26;18.70;99.90
23544;DHT22;11950;51.230;4.012;2022-09-09T19:03:53;18.50;99.90
23544;DHT22;11950;51.230;4.012;2022-09-09T19:06:25;18.20;99.90
23544;DHT22;11950;51.230;4.012;2022-09-09T19:08:52;18.50;99.90
23544;DHT22;11950;51.230;4.012;2022-09-09T19:11:21;18.50;99.90
23544;DHT22;11950;51.230;4.012;2022-09-09T19:14:00;18.50;99.90
23544;DHT22;11950;51.230;4.012;2022-09-09T19:18:56;18.50;99.90
23544;DHT22;11950;51.230;4.012;2022-09-09T19:21:25;18.40;99.90
23544;DHT22;11950;51.230;4.012;2022-09-09T19:23:57;18.40;99.90
23544;DHT22;11950;51.230;4.012;2022-09-09T19:26:29;18.00;99.90
23544;DHT22;11950;51.230;4.012;2022-09-09T19:28:58;18.30;99.90
23544;DHT22;11950;51.230;4.012;2022-09-09T19:31:25;18.80;99.90
23544;DHT22;11950;51.230;4.012;2022-09-09T19:33:53;17.80;99.90
23544;DHT22;11950;51.230;4.012;2022-09-09T19:36:24;18.20;99.90
23544;DHT22;11950;51.230;4.012;2022-09-09T19:38:53;18.20;99.90
23544;DHT22;11950;51.230;4.012;2022-09-09T19:41:22;18.20;99.90
23544;DHT22;11950;51.230;4.012;2022-09-09T19:43:49;18.20;99.90
23544;DHT22;11950;51.230;4.012;2022-09-09T19:46:16;18.10;99.90
23544;DHT22;11950;51.230;4.012;2022-09-09T19:51:18;18.30;99.90
23544;DHT22;11950;51.230;4.012;2022-09-09T19:53:47;18.10;99.90
23544;DHT22;11950;51.230;4.012;2022-09-09T19:56:15;20.30;99.90
23544;DHT22;11950;51.230;4.012;2022-09-09T19:58:44;18.00;99.90
23544;DHT22;11950;51.230;4.012;2022-09-09T20:06:29;18.10;99.90
23544;DHT22;11950;51.230;4.012;2022-09-09T20:08:56;18.10;99.90
23544;DHT22;11950;51.230;4.012;2022-09-09T20:16:21;18.10;99.90
23544;DHT22;11950;51.230;4.012;2022-09-09T20:18:50;18.40;99.90
23544;DHT22;11950;51.230;4.012;2022-09-09T20:21:23;18.00;99.90
23544;DHT22;11950;51.230;4.012;2022-09-09T20:23:50;17.90;99.90
23544;DHT22;11950;51.230;4.012;2022-09-09T20:26:19;17.90;99.90
23544;DHT22;11950;51.230;4.012;2022-09-09T20:28:52;17.80;99.90
23544;DHT22;11950;51.230;4.012;2022-09-09T20:31:21;17.70;99.90
23544;DHT22;11950;51.230;4.012;2022-09-09T20:36:16;17.80;99.90
23544;DHT22;11950;51.230;4.012;2022-09-09T20:38:47;17.90;99.90
23544;DHT22;11950;51.230;4.012;2022-09-09T20:41:15;17.80;99.90
23544;DHT22;11950;51.230;4.012;2022-09-09T20:46:19;17.80;99.90